This is the latest recevied weather packets stored in our database for station/object UB2FAY-13. If no packets are shown the sender has not sent any weather packets the latest 10 day(s).
| Time | Temp. | Humidity | Pressure | Rain* | Wind** | Luminosity | Snow |
|---|---|---|---|---|---|---|---|
| 1777661216 | 13.89° C | 55% | 1024.2 hPa | 0 mm | - | - | - |
| 1777660616 | 14.44° C | 53% | 1024.1 hPa | 0 mm | - | - | - |
| 1777660016 | 15° C | 51% | 1024 hPa | 0 mm | - | - | - |
| 1777659416 | 15.56° C | 48% | 1023.9 hPa | 0 mm | - | - | - |
| 1777658816 | 17.22° C | 45% | 1023.9 hPa | 0 mm | - | - | - |
| 1777657016 | 20.56° C | 41% | 1023.6 hPa | 0 mm | - | - | - |
| 1777655816 | 21.67° C | 40% | 1023.5 hPa | 0 mm | - | - | - |
| 1777655216 | 22.22° C | 39% | 1023.4 hPa | 0 mm | - | - | - |
| 1777653416 | 23.89° C | 38% | 1023.6 hPa | 0 mm | - | - | - |
| 1777651616 | 18.89° C | 44% | 1023.9 hPa | 0 mm | - | - | - |
| 1777651016 | 20° C | 42% | 1023.9 hPa | 0 mm | - | - | - |
| 1777650416 | 21.67° C | 41% | 1024 hPa | 0 mm | - | - | - |
| 1777649216 | 18.33° C | 46% | 1024.1 hPa | 0 mm | - | - | - |
| 1777648016 | 18.33° C | 46% | 1024.1 hPa | 0 mm | - | - | - |
| 1777647416 | 18.33° C | 46% | 1024.3 hPa | 0 mm | - | - | - |
| 1777646820 | 18.33° C | 46% | 1024.5 hPa | 0 mm | - | - | - |
| 1777646216 | 18.33° C | 46% | 1024.6 hPa | 0 mm | - | - | - |
| 1777643820 | 17.78° C | 47% | 1025.1 hPa | 0 mm | - | - | - |
| 1777642617 | 17.78° C | 47% | 1025.2 hPa | 0 mm | - | - | - |
| 1777641417 | 17.78° C | 48% | 1025.2 hPa | 0 mm | - | - | - |
| 1777639017 | 17.78° C | 49% | 1025.7 hPa | 0 mm | - | - | - |
| 1777637817 | 17.78° C | 50% | 1025.8 hPa | 0 mm | - | - | - |
| 1777636617 | 17.78° C | 50% | 1026 hPa | 0 mm | - | - | - |
| 1777636017 | 17.22° C | 50% | 1026 hPa | 0 mm | - | - | - |
| 1777635417 | 17.22° C | 50% | 1026.2 hPa | 0 mm | - | - | - |
* Rain latest hour (hover to see other rain measurements)
** Current wind speed in m/s (hover to see current wind gust speed)